Terminal Aerodrome Forecast
Issued by NWS

Current Version | Previous Version | Text Only | Print | Product List | Glossary On
Versions: 1 2 3 4 5 6 7 8 9 10 11 12 13 14 15 16 17 18 19 20
000
FTUS46 KLOX 311134
TAFVNY
TAF
KVNY 311134Z 3112/0112 VRB05KT 6SM BR BKN004
      TEMPO 3112/3116 3SM BR OVC005
     FM311600 16008KT P6SM SCT010
     FM312200 26014KT P6SM SCT015
     FM010400 26008KT P6SM BKN012
     FM011100 VRB05KT P6SM OVC008=

USA.gov is the U.S. government's official web portal to all federal, state and local government web resources and services.